CheckWX is a tool to help pilots better visualize weather data.  It is not intended as a substitute for an official pre-flight weather briefing.

17:59:12 UTC

CYYT TAF
St. John's International Airport
St. John's, Canada
TAF CYYT 251139Z 2512/2612 27008KT P6SM FEW025 FM251600 VRB03KT P6SM FEW040 BECMG 2522/2524 26007KT RMK NXT FCST BY 251800Z

Aug-25@
12:00 UTC

Aug-25 @ 12:00 UTC

Aug-25@
16:00 UTC

Aug-25 @ 16:00 UTC

TAF CYYT 251139Z 2512/2612 27008KT P6SM FEW025

Expired

Wind
  • 270° at 8 KTS
Cloud Levels
  • Few at 2,500' AGL

Aug-25@
16:00 UTC

Aug-25 @ 16:00 UTC

Aug-25@
22:00 UTC

Aug-25 @ 22:00 UTC

FM251600 VRB03KT P6SM FEW040

From

From Standard forecast or significant change

Wind
  • Variable at 3 KTS
Cloud Levels
  • Few at 4,000' AGL

Aug-25@
22:00 UTC

Aug-25 @ 22:00 UTC

Aug-26@
12:00 UTC

Aug-26 @ 12:00 UTC

BECMG 2522/2524 26007KT RMK NXT FCST BY 251800Z

Becoming

Becoming Conditions expected by Mon, Aug 26, 2019 @ 00:00 UTC

Wind
  • 260° at 7 KTS
Cloud Levels
  • Few at 4,000' AGL